Main page
METAR-TAF:

METAR-TAF

Airports :

Svalbard Airport. Longyear

Longyearbyen, Norway

latitude: 78-15N, longitude: 015-28E, elevation: 2 m

Current weather observation

The report was made 27 minutes ago, at 00:20 UTC
Wind 19 kt from the North
Temperature -6°C
Humidity 62%
Pressure 988 hPa
Visibility 10 km or more
Few clouds at a height of 3600 ft
Scattered clouds at a height of 4500 ft
Broken clouds at a height of 8200 ft

METAR: ENSB 110020Z 35019KT 9999 FEW036 SCT045 BKN082 M06/M12 Q0988 RMK WIND 1400FT 35022KT

Time: 02:47 (00:47 UTC)

Forecast

Forecast valid from 11 at 00 UTC to 11 at 24 UTC
Wind 18 kt from the North/Northwest
Visibility 10 km or more
Few clouds at a height of 2000 ft
Broken clouds at a height of 3000 ft
Probability 30% :
Temporary
from 11 at 00 UTC to 11 at 12 UTC
Visibility: 2500 m
at a height of 800 ft
light snow showers

TAF: ENSB 1100/1124 34018KT 9999 FEW020 BKN030 PROB30 TEMPO 1100/1112 2500 -SHSN VV008

Weather observations and forecasts of more than 4000 airports (METAR and TAF reports).

The available stations are represented by yellow and red dots on the map.

Hover mouse over dot to see the name of the station.

Then click to see weather observations and forecasts.

To change the map : click on the green buttons with a black cross to zoom in, on the green button with a dash to zoom out, or on the green arrows for adjacent maps.


METAR-TAF: